createdAt,value
2019-05-15T00:01:51.619Z,13.72
2019-05-15T00:03:53.617Z,7.97
2019-05-15T00:05:55.743Z,15.60
2019-05-15T00:07:59.245Z,13.93
2019-05-15T00:10:01.785Z,9.75
2019-05-15T00:12:04.113Z,10.70
2019-05-15T00:14:08.528Z,8.95
2019-05-15T00:16:12.487Z,8.60
2019-05-15T00:18:14.639Z,9.70
2019-05-15T00:20:17.139Z,7.53
2019-05-15T00:22:19.181Z,8.20
2019-05-15T00:24:22.809Z,10.45
2019-05-15T00:26:25.366Z,12.25
2019-05-15T00:30:30.400Z,11.18
2019-05-15T00:32:32.789Z,10.13
2019-05-15T00:34:37.893Z,8.78
2019-05-15T00:36:40.071Z,10.48
2019-05-15T00:38:42.228Z,10.55
2019-05-15T00:40:44.225Z,11.80
2019-05-15T00:42:48.602Z,9.08
2019-05-15T00:44:50.974Z,10.48
2019-05-15T00:46:53.477Z,7.78
2019-05-15T00:48:55.522Z,9.05
2019-05-15T00:50:59.101Z,8.30
2019-05-15T00:55:03.109Z,9.70
2019-05-15T00:57:08.423Z,9.88
2019-05-15T00:59:23.123Z,8.83
2019-05-15T01:01:14.137Z,11.45
2019-05-15T01:03:18.226Z,9.90
2019-05-15T01:05:20.263Z,9.98
2019-05-15T01:07:22.326Z,11.65
2019-05-15T01:09:24.627Z,10.05
2019-05-15T01:13:33.425Z,12.50
2019-05-15T01:15:35.774Z,10.15
2019-05-15T01:19:41.553Z,10.40
2019-05-15T01:21:43.862Z,8.50
2019-05-15T01:23:48.254Z,8.20
2019-05-15T01:25:49.744Z,9.58
2019-05-15T01:27:52.915Z,11.70
2019-05-15T01:29:54.956Z,12.85
2019-05-15T01:31:59.264Z,9.70
2019-05-15T01:34:01.869Z,8.28
2019-05-15T01:36:04.023Z,10.13
2019-05-15T01:38:08.141Z,9.50
2019-05-15T01:40:10.418Z,8.63
2019-05-15T01:44:14.413Z,11.33
2019-05-15T01:48:20.590Z,13.22
2019-05-15T01:50:22.608Z,12.90
2019-05-15T01:52:24.934Z,9.40
2019-05-15T01:54:28.955Z,10.48
2019-05-15T01:56:31.198Z,11.20
2019-05-15T01:58:33.600Z,9.63
2019-05-15T02:02:39.015Z,10.82
2019-05-15T02:04:41.716Z,12.75
2019-05-15T02:06:48.312Z,12.13
2019-05-15T02:08:50.446Z,12.73
2019-05-15T02:10:53.934Z,13.85
2019-05-15T02:14:58.713Z,13.18
2019-05-15T02:17:01.451Z,10.93
2019-05-15T02:21:07.462Z,10.35
2019-05-15T02:23:11.846Z,9.75
2019-05-15T02:25:14.215Z,10.85
2019-05-15T02:27:18.548Z,9.28
2019-05-15T02:29:25.153Z,9.75
2019-05-15T02:31:25.437Z,10.20
2019-05-15T02:33:30.067Z,10.88
2019-05-15T02:35:31.785Z,13.58
2019-05-15T02:37:34.044Z,9.13
2019-05-15T02:39:38.764Z,8.85
2019-05-15T02:41:40.222Z,8.80
2019-05-15T02:43:42.210Z,9.55
2019-05-15T02:45:44.217Z,8.23
2019-05-15T02:47:48.811Z,11.35
2019-05-15T02:49:50.309Z,9.50
2019-05-15T02:51:52.308Z,13.48
2019-05-15T02:53:54.640Z,9.68
2019-05-15T02:58:00.597Z,10.53
2019-05-15T03:02:05.144Z,9.25
2019-05-15T03:04:09.278Z,10.10
2019-05-15T03:06:12.126Z,10.50
2019-05-15T03:08:14.287Z,9.68
2019-05-15T03:10:19.784Z,13.88
2019-05-15T03:12:20.577Z,14.98
2019-05-15T03:14:22.564Z,16.00
2019-05-15T03:16:24.688Z,12.33
2019-05-15T03:18:28.953Z,11.85
2019-05-15T03:20:31.053Z,11.08
2019-05-15T03:22:35.074Z,12.53
2019-05-15T03:24:39.728Z,13.18
2019-05-15T03:26:41.350Z,9.80
2019-05-15T03:28:43.327Z,11.88
2019-05-15T03:31:14.691Z,20.20
2019-05-15T03:32:59.746Z,12.23
2019-05-15T03:34:56.838Z,11.43
2019-05-15T03:37:03.190Z,14.07
2019-05-15T03:39:01.965Z,13.25
2019-05-15T03:41:05.347Z,11.95
2019-05-15T03:43:09.128Z,11.05
2019-05-15T03:45:13.056Z,13.65
2019-05-15T03:47:15.056Z,14.55
2019-05-15T03:49:19.990Z,14.10
2019-05-15T03:51:21.458Z,12.03
2019-05-15T03:53:23.620Z,10.25
2019-05-15T03:55:25.789Z,10.65
2019-05-15T03:57:30.398Z,11.43
2019-05-15T03:59:31.765Z,10.08
2019-05-15T04:01:42.897Z,9.70
2019-05-15T04:03:39.016Z,10.53
2019-05-15T04:05:41.218Z,12.55
2019-05-15T04:07:43.487Z,10.72
2019-05-15T04:09:45.476Z,13.72
2019-05-15T04:11:49.784Z,15.30
2019-05-15T04:13:51.814Z,12.30
2019-05-15T04:15:53.873Z,12.05
2019-05-15T04:17:55.885Z,15.83
2019-05-15T04:19:58.939Z,11.30
2019-05-15T04:22:01.132Z,12.75
2019-05-15T04:24:03.415Z,12.78
2019-05-15T04:26:09.182Z,11.50
2019-05-15T04:28:12.378Z,13.88
2019-05-15T04:30:14.773Z,11.43
2019-05-15T04:34:23.641Z,10.80
2019-05-15T04:36:25.633Z,11.08
2019-05-15T04:38:29.166Z,10.85
2019-05-15T04:40:31.651Z,14.68
2019-05-15T04:42:33.730Z,11.33
2019-05-15T04:44:35.858Z,12.50
2019-05-15T04:46:39.905Z,12.45
2019-05-15T04:48:41.873Z,12.28
2019-05-15T04:50:44.287Z,13.53
2019-05-15T04:54:49.302Z,12.10
2019-05-15T04:56:51.823Z,11.93
2019-05-15T04:58:53.808Z,13.05
2019-05-15T05:00:59.843Z,12.20
2019-05-15T05:03:00.986Z,14.58
2019-05-15T05:05:03.960Z,16.42
2019-05-15T05:07:09.212Z,11.35
2019-05-15T05:09:10.427Z,11.88
2019-05-15T05:11:12.595Z,13.68
2019-05-15T05:13:14.804Z,12.60
2019-05-15T05:15:18.985Z,8.05
2019-05-15T05:17:21.024Z,11.78
2019-05-15T05:19:23.436Z,12.40
2019-05-15T05:23:29.173Z,12.00
2019-05-15T05:25:31.410Z,11.35
2019-05-15T05:27:33.596Z,12.47
2019-05-15T05:29:35.624Z,10.63
2019-05-15T05:31:39.179Z,12.18
2019-05-15T05:33:41.622Z,9.43
2019-05-15T05:35:43.672Z,9.80
2019-05-15T05:37:47.945Z,11.18
2019-05-15T05:39:49.857Z,12.78
2019-05-15T05:41:51.945Z,11.70
2019-05-15T05:43:53.920Z,11.90
2019-05-15T05:45:58.222Z,10.98
2019-05-15T05:48:00.152Z,11.60
2019-05-15T05:52:30.394Z,12.25
2019-05-15T05:54:32.375Z,14.53
2019-05-15T05:56:34.373Z,10.30
2019-05-15T05:58:38.898Z,12.53
2019-05-15T06:00:43.482Z,15.40
2019-05-15T06:02:51.843Z,11.73
2019-05-15T06:04:51.199Z,13.20
2019-05-15T06:07:06.121Z,11.28
2019-05-15T06:08:58.499Z,11.30
2019-05-15T06:11:00.885Z,11.38
2019-05-15T06:13:03.049Z,8.25
2019-05-15T06:15:05.436Z,11.70
2019-05-15T06:21:12.232Z,14.78
2019-05-15T06:23:22.202Z,13.35
2019-05-15T06:25:20.007Z,11.60
2019-05-15T06:27:22.277Z,10.88
2019-05-15T06:29:24.407Z,11.97
2019-05-15T06:31:28.103Z,10.20
2019-05-15T06:33:30.272Z,14.30
2019-05-15T06:35:32.439Z,11.38
2019-05-15T06:37:34.497Z,10.23
2019-05-15T06:39:38.894Z,11.22
2019-05-15T06:41:40.973Z,11.48
2019-05-15T06:43:43.004Z,8.03
2019-05-15T06:45:45.175Z,8.85
2019-05-15T06:47:48.245Z,8.90
2019-05-15T06:49:50.473Z,7.00
2019-05-15T06:51:54.372Z,10.13
2019-05-15T06:53:58.346Z,7.58
2019-05-15T06:56:00.950Z,9.13
2019-05-15T06:58:03.596Z,12.73
2019-05-15T07:00:08.383Z,9.98
2019-05-15T07:02:10.419Z,6.55
2019-05-15T07:04:12.441Z,8.45
2019-05-15T07:06:14.934Z,10.05
2019-05-15T07:10:21.880Z,7.78
2019-05-15T07:14:26.093Z,7.83
2019-05-15T07:16:28.555Z,8.25
2019-05-15T07:20:32.388Z,11.65
2019-05-15T07:22:34.421Z,8.20
2019-05-15T07:24:38.374Z,7.85
2019-05-15T07:26:40.993Z,8.88
2019-05-15T07:30:45.020Z,7.15
2019-05-15T07:32:48.743Z,7.37
2019-05-15T07:34:50.912Z,8.13
2019-05-15T07:36:53.138Z,6.95
2019-05-15T07:38:57.811Z,7.05
2019-05-15T07:41:04.019Z,8.85
2019-05-15T07:43:03.628Z,8.98
2019-05-15T07:45:08.246Z,5.72
2019-05-15T07:47:11.574Z,8.88
2019-05-15T07:49:13.642Z,6.05
2019-05-15T07:51:17.838Z,8.63
2019-05-15T07:53:20.267Z,9.30
2019-05-15T07:55:22.763Z,9.85
2019-05-15T07:57:24.827Z,7.30
2019-05-15T07:59:29.765Z,8.53
2019-05-15T08:01:32.008Z,9.35
2019-05-15T08:03:34.331Z,8.28
2019-05-15T08:05:38.211Z,6.72
2019-05-15T08:07:40.446Z,6.03
2019-05-15T08:09:42.442Z,5.87
2019-05-15T08:11:44.590Z,10.08
2019-05-15T08:13:48.675Z,7.75
2019-05-15T08:15:51.869Z,8.80
2019-05-15T08:18:08.185Z,5.60
2019-05-15T08:19:58.360Z,5.28
2019-05-15T08:22:00.448Z,4.87
2019-05-15T08:24:02.701Z,6.92
2019-05-15T08:26:04.968Z,4.37
2019-05-15T08:28:08.889Z,4.90
2019-05-15T08:30:11.836Z,5.65
2019-05-15T08:32:14.023Z,4.50
2019-05-15T08:34:19.598Z,4.83
2019-05-15T08:36:21.219Z,4.70
2019-05-15T08:38:23.664Z,5.60
2019-05-15T08:40:25.931Z,6.92
2019-05-15T08:42:31.648Z,8.08
2019-05-15T08:44:33.646Z,3.72
2019-05-15T08:46:35.849Z,4.70
2019-05-15T08:48:38.527Z,4.60
2019-05-15T08:50:41.063Z,4.83
2019-05-15T08:54:44.655Z,5.40
2019-05-15T08:56:48.447Z,5.22
2019-05-15T08:58:50.663Z,5.78
2019-05-15T09:00:52.806Z,4.90
2019-05-15T09:02:55.173Z,3.70
2019-05-15T09:04:58.068Z,6.20
2019-05-15T09:07:01.311Z,5.47
2019-05-15T09:09:05.860Z,7.33
2019-05-15T09:11:09.200Z,7.67
2019-05-15T09:13:12.096Z,5.92
2019-05-15T09:17:18.134Z,5.00
2019-05-15T09:19:20.212Z,5.30
2019-05-15T09:21:22.527Z,5.75
2019-05-15T09:23:24.531Z,4.17
2019-05-15T09:25:28.773Z,4.15
2019-05-15T09:27:31.279Z,4.30
2019-05-15T09:29:34.039Z,5.67
2019-05-15T09:31:36.079Z,8.25
2019-05-15T09:33:38.791Z,4.08
2019-05-15T09:35:41.124Z,6.25
2019-05-15T09:37:43.168Z,7.35
2019-05-15T09:39:45.528Z,4.50
2019-05-15T09:41:48.730Z,4.15
2019-05-15T09:43:51.105Z,6.35
2019-05-15T09:45:53.330Z,4.87
2019-05-15T09:47:55.442Z,5.90
2019-05-15T09:49:58.940Z,5.47
2019-05-15T09:52:01.470Z,6.03
2019-05-15T09:54:03.788Z,5.47
2019-05-15T09:56:08.138Z,6.87
2019-05-15T09:58:10.716Z,4.55
2019-05-15T10:00:13.976Z,4.37
2019-05-15T10:02:18.711Z,5.15
2019-05-15T10:04:20.285Z,9.30
2019-05-15T10:06:22.429Z,7.12
2019-05-15T10:08:24.444Z,4.95
2019-05-15T10:10:28.424Z,7.03
2019-05-15T10:12:34.964Z,6.17
2019-05-15T10:14:34.653Z,3.62
2019-05-15T10:16:37.093Z,5.45
2019-05-15T10:20:41.461Z,4.62
2019-05-15T10:22:43.652Z,6.03
2019-05-15T10:24:50.504Z,5.70
2019-05-15T10:26:49.894Z,4.75
2019-05-15T10:28:52.303Z,4.75
2019-05-15T10:30:54.313Z,4.30
2019-05-15T10:32:56.375Z,5.25
2019-05-15T10:34:58.775Z,7.70
2019-05-15T10:39:02.534Z,5.55
2019-05-15T10:41:11.305Z,6.78
2019-05-15T10:43:09.816Z,7.28
2019-05-15T10:45:12.333Z,5.22
2019-05-15T10:49:18.925Z,5.50
2019-05-15T10:51:20.809Z,6.58
2019-05-15T10:53:23.274Z,6.42
2019-05-15T10:55:25.303Z,4.55
2019-05-15T10:57:28.113Z,8.30
2019-05-15T10:59:30.387Z,6.40
2019-05-15T11:01:32.518Z,5.95
2019-05-15T11:03:35.259Z,5.85
2019-05-15T11:05:45.317Z,5.03
2019-05-15T11:07:43.649Z,7.00
2019-05-15T11:09:45.680Z,8.75
2019-05-15T11:11:51.181Z,3.80
2019-05-15T11:13:52.881Z,5.85
2019-05-15T11:15:55.095Z,6.20
2019-05-15T11:17:58.418Z,3.92
2019-05-15T11:20:01.045Z,5.40
2019-05-15T11:22:03.142Z,4.92
2019-05-15T11:24:08.589Z,4.92
2019-05-15T11:26:10.454Z,6.78
2019-05-15T11:28:12.945Z,4.17
2019-05-15T11:32:17.319Z,7.83
2019-05-15T11:34:19.658Z,5.55
2019-05-15T11:36:22.072Z,5.35
2019-05-15T11:38:24.081Z,4.35
2019-05-15T11:40:28.224Z,4.47
2019-05-15T11:42:30.413Z,4.25
2019-05-15T11:44:32.594Z,7.78
2019-05-15T11:46:34.559Z,8.33
2019-05-15T11:48:39.135Z,4.97
2019-05-15T11:50:41.234Z,6.00
2019-05-15T11:52:43.604Z,7.87
2019-05-15T11:56:48.997Z,7.92
2019-05-15T11:58:52.225Z,5.55
2019-05-15T12:00:54.474Z,6.33
2019-05-15T12:02:58.458Z,5.55
2019-05-15T12:05:00.430Z,4.60
2019-05-15T12:07:02.834Z,6.17
2019-05-15T12:11:11.816Z,5.67
2019-05-15T12:13:11.754Z,6.30
2019-05-15T12:15:13.969Z,5.60
2019-05-15T12:17:16.183Z,5.17
2019-05-15T12:19:18.355Z,4.53
2019-05-15T12:21:20.486Z,5.20
2019-05-15T12:23:22.669Z,5.62
2019-05-15T12:25:31.013Z,7.03
2019-05-15T12:27:30.115Z,7.42
2019-05-15T12:29:32.145Z,6.28
2019-05-15T12:31:34.267Z,6.62
2019-05-15T12:33:38.470Z,6.83
2019-05-15T12:35:40.472Z,5.10
2019-05-15T12:39:44.614Z,5.78
2019-05-15T13:00:29.838Z,4.78
2019-05-15T13:02:31.962Z,10.38
2019-05-15T13:04:33.983Z,4.53
2019-05-15T13:06:48.093Z,4.62
2019-05-15T13:08:40.206Z,5.37
2019-05-15T13:10:42.238Z,5.92
2019-05-15T13:12:57.237Z,6.22
2019-05-15T13:14:48.529Z,5.42
2019-05-15T13:18:52.660Z,5.70
2019-05-15T13:20:56.833Z,4.62
2019-05-15T13:22:59.411Z,5.28
2019-05-15T13:25:02.167Z,7.05
2019-05-15T13:27:04.698Z,5.55
2019-05-15T13:29:08.986Z,5.15
2019-05-15T13:31:11.321Z,9.58
2019-05-15T13:33:13.353Z,7.58
2019-05-15T13:35:18.200Z,6.15
2019-05-15T13:37:27.358Z,7.83
2019-05-15T13:39:24.178Z,6.10
2019-05-15T13:41:28.175Z,6.47
2019-05-15T13:43:30.084Z,6.42
2019-05-15T13:45:32.260Z,4.85
2019-05-15T13:47:34.373Z,6.25
2019-05-15T13:49:38.509Z,6.28
2019-05-15T13:51:41.619Z,9.30
2019-05-15T13:53:44.015Z,4.55
2019-05-15T13:55:48.376Z,6.53
2019-05-15T13:57:50.466Z,4.60
2019-05-15T13:59:52.629Z,6.95
2019-05-15T14:01:54.646Z,4.33
2019-05-15T14:03:58.915Z,5.30
2019-05-15T14:06:01.198Z,4.58
2019-05-15T14:08:03.291Z,5.80
2019-05-15T14:10:06.145Z,6.80
2019-05-15T14:12:12.134Z,5.92
2019-05-15T14:14:12.308Z,10.10
2019-05-15T14:16:14.673Z,5.70
2019-05-15T14:18:19.744Z,4.33
2019-05-15T14:20:21.964Z,5.60
2019-05-15T14:22:24.436Z,4.72
2019-05-15T14:24:26.720Z,5.15
2019-05-15T14:26:30.470Z,3.33
2019-05-15T14:28:32.772Z,5.20
2019-05-15T14:30:35.185Z,6.58
2019-05-15T14:34:40.886Z,3.47
2019-05-15T14:36:42.954Z,6.33
2019-05-15T14:38:45.430Z,3.80
2019-05-15T14:40:48.174Z,3.95
2019-05-15T14:42:50.509Z,5.10
2019-05-15T14:44:52.566Z,7.20
2019-05-15T14:46:54.844Z,5.33
2019-05-15T14:48:58.268Z,5.87
2019-05-15T14:51:01.762Z,8.00
2019-05-15T14:53:06.281Z,6.70
2019-05-15T14:55:08.544Z,7.12
2019-05-15T14:57:11.783Z,5.33
2019-05-15T14:59:13.934Z,9.55
2019-05-15T15:01:18.455Z,5.67
2019-05-15T15:03:20.636Z,6.80
2019-05-15T15:05:23.321Z,6.72
2019-05-15T15:07:28.117Z,6.20
2019-05-15T15:09:29.672Z,5.53
2019-05-15T15:11:31.846Z,5.37
2019-05-15T15:13:33.894Z,6.33
2019-05-15T15:15:37.971Z,5.22
2019-05-15T15:17:40.485Z,6.62
2019-05-15T15:19:42.646Z,5.08
2019-05-15T15:21:44.703Z,7.03
2019-05-15T15:23:48.154Z,6.10
2019-05-15T15:25:50.304Z,5.78
2019-05-15T15:27:52.642Z,6.15
2019-05-15T15:29:54.895Z,12.53
2019-05-15T15:31:58.974Z,7.33
2019-05-15T15:34:00.953Z,4.83
2019-05-15T15:36:03.550Z,6.62
2019-05-15T15:38:05.576Z,8.13
2019-05-15T15:40:08.255Z,7.35
2019-05-15T15:42:10.768Z,6.67
2019-05-15T15:44:12.803Z,8.43
2019-05-15T15:46:14.817Z,6.97
2019-05-15T15:48:19.306Z,6.65
2019-05-15T15:50:21.773Z,7.12
2019-05-15T15:52:23.935Z,6.50
2019-05-15T15:54:28.105Z,7.25
2019-05-15T15:56:31.275Z,7.53
2019-05-15T15:58:37.957Z,6.53
2019-05-15T16:00:40.090Z,6.62
2019-05-15T16:02:42.185Z,8.80
2019-05-15T16:04:44.231Z,8.40
2019-05-15T16:06:48.333Z,6.97
2019-05-15T16:08:55.066Z,7.78
2019-05-15T16:10:54.717Z,7.55
2019-05-15T16:12:58.224Z,6.00
2019-05-15T16:15:00.487Z,6.80
2019-05-15T16:17:02.797Z,8.55
2019-05-15T16:19:04.850Z,7.33
2019-05-15T16:21:08.199Z,8.80
2019-05-15T16:23:10.669Z,5.53
2019-05-15T16:25:13.015Z,7.95
2019-05-15T16:27:15.165Z,6.97
2019-05-15T16:29:18.286Z,5.53
2019-05-15T16:31:21.233Z,6.55
2019-05-15T16:33:24.217Z,9.78
2019-05-15T16:35:28.946Z,6.67
2019-05-15T16:37:31.314Z,6.58
2019-05-15T16:39:33.746Z,5.12
2019-05-15T16:41:38.320Z,5.55
2019-05-15T16:43:40.171Z,8.40
2019-05-15T16:45:42.232Z,9.83
2019-05-15T16:47:44.371Z,6.33
2019-05-15T16:49:48.558Z,6.15
2019-05-15T16:51:50.518Z,6.08
2019-05-15T16:53:52.627Z,6.55
2019-05-15T16:55:54.669Z,6.70
2019-05-15T16:57:58.562Z,5.80
2019-05-15T17:00:00.982Z,6.83
2019-05-15T17:02:03.125Z,6.00
2019-05-15T17:04:05.216Z,9.30
2019-05-15T17:06:09.405Z,5.83
2019-05-15T17:08:11.869Z,8.85
2019-05-15T17:10:13.917Z,6.50
2019-05-15T17:12:16.080Z,5.55
2019-05-15T17:14:19.821Z,5.60
2019-05-15T17:16:22.066Z,6.25
2019-05-15T17:18:24.380Z,6.65
2019-05-15T17:20:28.441Z,8.35
2019-05-15T17:22:30.845Z,6.35
2019-05-15T17:24:33.003Z,6.03
2019-05-15T17:28:38.769Z,6.60
2019-05-15T17:30:40.769Z,6.75
2019-05-15T17:32:43.165Z,5.92
2019-05-15T17:36:49.012Z,7.58
2019-05-15T17:38:51.574Z,6.70
2019-05-15T17:40:54.580Z,5.53
2019-05-15T17:42:58.919Z,5.50
2019-05-15T17:45:01.311Z,6.12
2019-05-15T17:49:11.366Z,6.10
2019-05-15T17:51:11.766Z,5.17
2019-05-15T17:53:13.971Z,5.95
2019-05-15T17:55:18.200Z,5.12
2019-05-15T17:57:20.318Z,7.83
2019-05-15T17:59:22.546Z,6.45
2019-05-15T18:01:28.042Z,8.13
2019-05-15T18:03:29.692Z,6.00
2019-05-15T18:05:33.047Z,6.35
2019-05-15T18:07:35.150Z,7.30
2019-05-15T18:09:50.668Z,7.65
2019-05-15T18:11:44.478Z,6.15
2019-05-15T18:13:45.720Z,6.40
2019-05-15T18:15:48.929Z,7.33
2019-05-15T18:17:51.024Z,5.87
2019-05-15T18:19:53.089Z,7.47
2019-05-15T18:21:55.436Z,6.53
2019-05-15T18:26:01.490Z,6.83
2019-05-15T18:28:03.751Z,6.83
2019-05-15T18:30:08.586Z,6.80
2019-05-15T18:32:10.498Z,7.22
2019-05-15T18:34:12.540Z,7.25
2019-05-15T18:36:14.582Z,5.90
2019-05-15T18:38:18.956Z,10.35
2019-05-15T18:40:21.083Z,6.47
2019-05-15T18:42:23.528Z,7.67
2019-05-15T18:44:25.593Z,7.92
2019-05-15T18:46:28.901Z,7.10
2019-05-15T18:48:31.253Z,5.08
2019-05-15T18:50:33.353Z,5.60
2019-05-15T18:52:38.126Z,5.95
2019-05-15T18:54:39.768Z,5.87
2019-05-15T18:56:43.372Z,5.80
2019-05-15T18:58:45.711Z,6.22
2019-05-15T19:00:48.947Z,6.47
2019-05-15T19:02:51.423Z,6.58
2019-05-15T19:04:53.742Z,6.78
2019-05-15T19:08:57.579Z,7.75
2019-05-15T19:10:59.712Z,6.60
2019-05-15T19:13:01.915Z,6.30
2019-05-15T19:15:05.299Z,7.25
2019-05-15T19:17:08.278Z,5.42
2019-05-15T19:19:10.504Z,6.03
2019-05-15T19:21:12.512Z,7.97
2019-05-15T19:23:14.786Z,7.05
2019-05-15T19:25:17.964Z,5.80
2019-05-15T19:27:20.327Z,5.80
2019-05-15T19:29:23.095Z,5.87
2019-05-15T19:31:29.795Z,7.78
2019-05-15T19:33:37.081Z,7.40
2019-05-15T19:35:33.990Z,6.80
2019-05-15T19:39:39.865Z,6.50
2019-05-15T19:41:42.058Z,7.95
2019-05-15T19:43:44.211Z,8.18
2019-05-15T19:45:47.709Z,8.28
2019-05-15T19:47:50.265Z,8.15
2019-05-15T19:49:52.264Z,7.92
2019-05-15T19:51:54.316Z,10.40
2019-05-15T19:53:58.656Z,9.70
2019-05-15T19:56:00.605Z,10.53
2019-05-15T19:58:03.582Z,10.35
2019-05-15T20:02:12.064Z,9.18
2019-05-15T20:04:14.290Z,8.38
2019-05-15T20:06:18.684Z,11.63
2019-05-15T20:08:20.828Z,10.05
2019-05-15T20:10:23.068Z,10.53
2019-05-15T20:12:27.781Z,9.05
2019-05-15T20:14:29.890Z,9.03
2019-05-15T20:18:34.293Z,6.72
2019-05-15T20:20:38.574Z,6.70
2019-05-15T20:22:41.278Z,6.72
2019-05-15T20:24:44.594Z,8.73
2019-05-15T20:28:50.453Z,7.12
2019-05-15T20:30:52.920Z,4.50
2019-05-15T20:34:58.086Z,9.00
2019-05-15T20:37:00.430Z,6.28
2019-05-15T20:39:04.985Z,5.78
2019-05-15T20:41:08.341Z,7.33
2019-05-15T20:43:11.122Z,7.12
2019-05-15T20:47:15.024Z,4.83
2019-05-15T20:49:17.934Z,6.17
2019-05-15T20:51:20.302Z,6.25
2019-05-15T20:53:22.391Z,9.53
2019-05-15T20:55:24.722Z,5.67
2019-05-15T20:57:28.319Z,6.35
2019-05-15T20:59:30.543Z,6.62
2019-05-15T21:01:33.171Z,7.97
2019-05-15T21:03:35.379Z,7.08
2019-05-15T21:05:38.255Z,4.92
2019-05-15T21:07:43.252Z,6.55
2019-05-15T21:09:48.223Z,6.70
2019-05-15T21:12:48.576Z,5.33
2019-05-15T21:14:51.134Z,6.78
2019-05-15T21:16:53.169Z,3.65
2019-05-15T21:18:57.781Z,9.40
2019-05-15T21:20:59.583Z,7.25
2019-05-15T21:23:01.786Z,10.70
2019-05-15T21:25:04.164Z,8.48
2019-05-15T21:29:08.269Z,7.17
2019-05-15T21:31:10.549Z,8.23
2019-05-15T21:33:12.592Z,5.37
2019-05-15T21:35:14.619Z,6.60
2019-05-15T21:37:18.718Z,8.50
2019-05-15T21:39:20.945Z,11.28
2019-05-15T21:41:22.985Z,9.20
2019-05-15T21:43:25.171Z,8.40
2019-05-15T21:45:28.957Z,8.80
2019-05-15T21:47:31.239Z,5.12
2019-05-15T21:49:33.436Z,8.33
2019-05-15T21:53:38.851Z,8.53
2019-05-15T21:55:41.515Z,8.20
2019-05-15T21:59:46.222Z,6.65
2019-05-15T22:01:48.548Z,5.80
2019-05-15T22:03:52.479Z,7.42
2019-05-15T22:05:54.757Z,5.70
2019-05-15T22:07:58.780Z,9.23
2019-05-15T22:10:01.011Z,9.00
2019-05-15T22:12:03.792Z,9.23
2019-05-15T22:14:08.027Z,5.95
2019-05-15T22:16:10.276Z,7.45
2019-05-15T22:18:12.347Z,9.90
2019-05-15T22:20:15.993Z,7.95
2019-05-15T22:22:18.264Z,10.93
2019-05-15T22:24:20.386Z,7.80
2019-05-15T22:26:23.090Z,8.33
2019-05-15T22:28:25.274Z,8.70
2019-05-15T22:30:30.049Z,7.03
2019-05-15T22:34:42.302Z,8.83
2019-05-15T22:38:49.971Z,8.10
2019-05-15T22:40:50.330Z,9.53
2019-05-15T22:42:52.399Z,7.55
2019-05-15T22:44:54.427Z,7.72
2019-05-15T22:46:58.172Z,10.00
2019-05-15T22:49:00.376Z,6.67
2019-05-15T22:51:02.717Z,8.95
2019-05-15T22:55:07.361Z,7.78
2019-05-15T22:57:09.518Z,7.67
2019-05-15T22:59:11.957Z,7.75
2019-05-15T23:01:14.187Z,7.42
2019-05-15T23:03:18.788Z,10.90
2019-05-15T23:05:27.688Z,8.78
2019-05-15T23:07:24.797Z,11.97
2019-05-15T23:09:28.423Z,9.40
2019-05-15T23:11:30.977Z,8.28
2019-05-15T23:13:32.980Z,11.93
2019-05-15T23:15:34.995Z,9.05
2019-05-15T23:17:38.270Z,9.93
2019-05-15T23:19:40.517Z,13.58
2019-05-15T23:21:42.552Z,9.85
2019-05-15T23:23:44.786Z,9.38
2019-05-15T23:25:48.534Z,11.60
2019-05-15T23:27:51.087Z,9.55
2019-05-15T23:31:54.864Z,10.93
2019-05-15T23:33:56.909Z,8.85
2019-05-15T23:35:59.112Z,12.00
2019-05-15T23:38:01.250Z,7.62
2019-05-15T23:40:04.074Z,7.60
2019-05-15T23:42:08.753Z,8.60
2019-05-15T23:44:10.354Z,7.53
2019-05-15T23:46:12.550Z,9.25
2019-05-15T23:48:14.758Z,10.38
2019-05-15T23:50:17.042Z,10.03
2019-05-15T23:52:19.081Z,9.65
2019-05-15T23:54:21.358Z,12.35
2019-05-15T23:56:23.399Z,9.38
2019-05-15T23:58:25.529Z,8.05
